Time;durP1;ratioP1;P1;durP2;ratioP2;P2;SDS_P1;SDS_P2;PMS_P1;PMS_P2;Temp;Humidity;BMP_temperature;BMP_pressure;BME280_temperature;BME280_humidity;BME280_pressure;Samples;Min_cycle;Max_cycle;Signal;HPM_P1;HPM_P2
2022/12/22 03:27:30;;;;;;;0.70;0.70;;;17.80;62.90;;;;;;5064462;28;46058;-77
2022/12/22 03:29:57;;;;;;;0.60;0.60;;;17.80;62.80;;;;;;5068109;28;44568;-75
2022/12/22 03:32:27;;;;;;;0.70;0.70;;;17.80;62.90;;;;;;5086714;28;43715;-75
2022/12/22 03:34:55;;;;;;;0.50;0.50;;;17.80;63.00;;;;;;5086977;28;44037;-76
2022/12/22 03:37:23;;;;;;;0.60;0.60;;;17.80;63.10;;;;;;5086311;28;43941;-76
2022/12/22 03:39:50;;;;;;;0.57;0.57;;;17.70;63.10;;;;;;5084446;28;43481;-77
2022/12/22 03:47:47;;;;;;;0.57;0.57;;;17.70;63.20;;;;;;5076048;28;43748;-75
2022/12/22 03:50:15;;;;;;;0.60;0.60;;;17.70;63.20;;;;;;5083078;28;44038;-74
2022/12/22 03:52:43;;;;;;;0.63;0.63;;;17.70;64.00;;;;;;5067933;28;43884;-76
2022/12/22 03:55:11;;;;;;;0.57;0.57;;;17.70;63.40;;;;;;5062309;28;43502;-75
2022/12/22 03:57:39;;;;;;;0.67;0.67;;;17.70;63.50;;;;;;5086093;28;43938;-76
2022/12/22 04:00:08;;;;;;;0.50;0.50;;;17.80;63.30;;;;;;5086420;28;43485;-74
2022/12/22 04:02:39;;;;;;;0.40;0.40;;;17.90;63.00;;;;;;5083304;28;43513;-76
2022/12/22 04:05:09;;;;;;;0.60;0.60;;;17.90;62.90;;;;;;5086569;28;43422;-77
2022/12/22 04:07:37;;;;;;;0.70;0.70;;;17.80;62.80;;;;;;5080627;28;43946;-75
2022/12/22 04:12:55;;;;;;;0.60;0.60;;;17.80;63.10;;;;;;5086445;28;43704;-76
2022/12/22 04:15:23;;;;;;;0.50;0.50;;;17.80;63.00;;;;;;5086526;28;43455;-73
2022/12/22 04:17:51;;;;;;;0.60;0.60;;;17.80;63.00;;;;;;5066184;28;46162;-76
2022/12/22 04:20:21;;;;;;;0.40;0.40;;;17.80;63.10;;;;;;5086338;28;43411;-76
2022/12/22 04:22:49;;;;;;;0.50;0.50;;;17.70;63.00;;;;;;5081685;28;43473;-75
2022/12/22 04:25:17;;;;;;;0.50;0.50;;;17.70;63.20;;;;;;5067821;28;43550;-77
2022/12/22 04:27:45;;;;;;;0.40;0.40;;;17.70;63.30;;;;;;5085633;28;45134;-76
2022/12/22 04:30:14;;;;;;;0.50;0.50;;;17.70;63.20;;;;;;5085677;28;43464;-76
2022/12/22 04:32:41;;;;;;;0.50;0.50;;;17.70;63.20;;;;;;5067422;28;43877;-77
2022/12/22 04:35:09;;;;;;;0.60;0.60;;;17.70;63.30;;;;;;5067811;28;43571;-74
2022/12/22 04:37:39;;;;;;;0.50;0.50;;;17.70;63.30;;;;;;5066789;28;45851;-73
2022/12/22 04:40:08;;;;;;;0.30;0.30;;;17.70;63.40;;;;;;5084861;28;43644;-76
2022/12/22 04:42:36;;;;;;;0.33;0.33;;;17.70;63.60;;;;;;5086117;28;43450;-76
2022/12/22 04:45:04;;;;;;;0.57;0.57;;;17.70;63.40;;;;;;5085604;28;44038;-76
2022/12/22 04:47:32;;;;;;;0.57;0.57;;;17.80;63.20;;;;;;5067000;28;45798;-75
2022/12/22 04:50:00;;;;;;;0.53;0.53;;;17.90;62.90;;;;;;5084650;28;43461;-76
2022/12/22 04:52:28;;;;;;;1.23;0.57;;;17.90;62.70;;;;;;5065127;28;43438;-76
2022/12/22 04:54:57;;;;;;;0.60;0.60;;;17.90;62.70;;;;;;5086255;28;44061;-76
2022/12/22 04:57:25;;;;;;;0.53;0.53;;;17.90;63.00;;;;;;5088013;28;43935;-77
2022/12/22 04:59:54;;;;;;;0.57;0.53;;;17.90;62.90;;;;;;5088898;28;44012;-76
2022/12/22 05:02:22;;;;;;;0.60;0.60;;;17.90;62.90;;;;;;5088984;28;43407;-76
2022/12/22 05:04:50;;;;;;;0.50;0.50;;;17.80;62.90;;;;;;5070918;28;43724;-77
2022/12/22 05:07:19;;;;;;;0.30;0.30;;;17.80;63.00;;;;;;5088178;28;43750;-76
2022/12/22 05:09:47;;;;;;;1.70;0.53;;;17.80;63.10;;;;;;5066659;28;44644;-76
2022/12/22 05:15:02;;;;;;;0.40;0.40;;;17.70;63.10;;;;;;5086222;28;43353;-76
2022/12/22 05:17:30;;;;;;;0.50;0.50;;;17.80;63.20;;;;;;5068447;28;45566;-75
2022/12/22 05:19:58;;;;;;;0.40;0.40;;;17.70;63.20;;;;;;5088337;28;43491;-77
2022/12/22 05:22:26;;;;;;;0.53;0.53;;;17.70;63.20;;;;;;5088362;28;43422;-76
2022/12/22 05:24:54;;;;;;;0.50;0.50;;;17.70;63.30;;;;;;5065368;28;43566;-76
2022/12/22 05:27:23;;;;;;;0.43;0.43;;;17.70;63.50;;;;;;5088681;28;43948;-77
2022/12/22 05:29:51;;;;;;;0.60;0.60;;;17.80;63.50;;;;;;5088657;28;43405;-76
2022/12/22 05:32:19;;;;;;;0.70;0.70;;;17.80;63.10;;;;;;5085810;27;43563;-76
2022/12/22 05:34:47;;;;;;;0.93;0.90;;;17.90;62.90;;;;;;5081954;28;43470;-76
2022/12/22 05:37:15;;;;;;;1.10;1.10;;;17.90;63.00;;;;;;5088011;28;43607;-77
2022/12/22 05:39:43;;;;;;;0.90;0.90;;;17.80;62.90;;;;;;5086666;28;43545;-75
2022/12/22 05:42:11;;;;;;;1.40;1.27;;;17.80;63.10;;;;;;5069713;28;43482;-74
2022/12/22 05:44:40;;;;;;;1.40;1.30;;;17.80;63.10;;;;;;5088523;28;43757;-77
2022/12/22 05:47:08;;;;;;;1.50;1.40;;;17.80;63.00;;;;;;5080541;28;43813;-75
2022/12/22 05:49:36;;;;;;;1.73;1.60;;;17.80;63.00;;;;;;5088306;28;43420;-76
2022/12/22 05:52:04;;;;;;;1.77;1.67;;;17.80;63.10;;;;;;5088112;28;43477;-76
2022/12/22 05:54:33;;;;;;;1.63;1.57;;;17.80;63.20;;;;;;5088245;28;43541;-76
2022/12/22 05:57:01;;;;;;;1.83;1.53;;;17.70;63.10;;;;;;5069149;28;45961;-76
2022/12/22 05:59:29;;;;;;;2.13;1.90;;;17.70;63.40;;;;;;5069034;28;45131;-77
2022/12/22 06:01:59;;;;;;;1.80;1.70;;;17.80;63.30;;;;;;5063517;28;43847;-75
2022/12/22 06:04:27;;;;;;;2.73;1.90;;;17.80;62.90;;;;;;5088467;28;43562;-77
2022/12/22 06:06:55;;;;;;;2.47;1.80;;;17.90;62.90;;;;;;5088138;27;43889;-76
2022/12/22 06:09:23;;;;;;;2.90;2.10;;;17.80;62.90;;;;;;5085970;28;43408;-76
2022/12/22 06:11:51;;;;;;;2.10;1.93;;;17.80;62.90;;;;;;5088443;28;43422;-76
2022/12/22 06:14:19;;;;;;;4.03;2.60;;;17.80;63.30;;;;;;5088326;28;43577;-74
2022/12/22 06:16:47;;;;;;;4.67;2.57;;;17.80;63.00;;;;;;5081579;28;43899;-76
2022/12/22 06:19:16;;;;;;;2.73;2.27;;;17.80;63.10;;;;;;5087719;28;43557;-76
2022/12/22 06:21:44;;;;;;;2.57;2.07;;;17.80;63.20;;;;;;5087832;28;43497;-76
2022/12/22 06:24:12;;;;;;;3.50;2.47;;;17.80;63.20;;;;;;5088158;28;43596;-76
2022/12/22 06:26:40;;;;;;;3.23;2.47;;;17.70;63.20;;;;;;5087861;28;43996;-75
2022/12/22 06:29:08;;;;;;;5.67;2.70;;;17.70;63.50;;;;;;5083245;28;43433;-76
2022/12/22 06:31:35;;;;;;;2.90;2.70;;;17.80;63.50;;;;;;5087805;28;43493;-77
2022/12/22 06:34:03;;;;;;;2.97;2.60;;;17.90;63.20;;;;;;5088150;28;43435;-77
2022/12/22 06:36:33;;;;;;;4.13;2.53;;;17.90;62.90;;;;;;5087589;28;43903;-75
2022/12/22 06:39:01;;;;;;;4.13;2.73;;;17.90;62.80;;;;;;5087356;28;43441;-76
2022/12/22 06:44:14;;;;;;;3.47;2.80;;;17.80;63.10;;;;;;5084040;28;43590;-77
2022/12/22 06:46:42;;;;;;;3.40;2.73;;;17.90;63.00;;;;;;5087767;28;43744;-76
2022/12/22 06:49:10;;;;;;;3.60;2.67;;;17.80;63.00;;;;;;5087454;28;43418;-77
2022/12/22 06:51:39;;;;;;;3.57;2.60;;;17.80;63.00;;;;;;5087094;28;43481;-76
2022/12/22 06:54:07;;;;;;;5.03;3.30;;;17.80;63.20;;;;;;5069062;28;43457;-76
2022/12/22 06:56:35;;;;;;;6.40;3.50;;;17.80;63.30;;;;;;5086409;28;43979;-75
2022/12/22 06:59:03;;;;;;;4.00;3.13;;;17.70;63.40;;;;;;5085776;28;43421;-77
2022/12/22 07:01:31;;;;;;;4.60;3.20;;;17.70;63.30;;;;;;5087321;28;43379;-76
2022/12/22 07:03:59;;;;;;;4.50;3.17;;;17.70;63.20;;;;;;5069240;28;44435;-76
2022/12/22 07:06:27;;;;;;;4.87;3.10;;;17.70;63.30;;;;;;5086562;28;43841;-76
2022/12/22 07:08:57;;;;;;;5.57;3.40;;;17.70;63.30;;;;;;5087270;28;43415;-76
2022/12/22 07:11:25;;;;;;;3.47;3.13;;;17.70;63.30;;;;;;5084800;28;43870;-75
2022/12/22 07:13:52;;;;;;;4.93;3.20;;;17.70;63.50;;;;;;5087788;28;43491;-75
2022/12/22 07:16:20;;;;;;;5.37;3.77;;;17.70;63.50;;;;;;5087382;28;43654;-75
2022/12/22 07:18:48;;;;;;;6.37;3.40;;;17.70;63.30;;;;;;5065830;28;44292;-75
2022/12/22 07:21:16;;;;;;;5.20;3.20;;;17.70;63.30;;;;;;5068532;28;43432;-75
2022/12/22 07:23:44;;;;;;;6.77;3.87;;;17.70;63.70;;;;;;5087065;28;43415;-76
2022/12/22 07:26:14;;;;;;;6.73;3.90;;;17.70;63.30;;;;;;5085299;28;44086;-75
2022/12/22 07:28:42;;;;;;;7.27;4.10;;;17.70;63.50;;;;;;5066980;27;44788;-77
2022/12/22 07:31:10;;;;;;;6.43;3.80;;;17.70;63.70;;;;;;5067009;28;43590;-76
2022/12/22 07:33:38;;;;;;;7.00;3.80;;;17.80;63.60;;;;;;5087335;28;43406;-77
2022/12/22 07:36:08;;;;;;;6.13;3.80;;;17.90;63.20;;;;;;5087057;28;43856;-77
2022/12/22 07:38:37;;;;;;;5.77;4.00;;;18.00;63.00;;;;;;5086530;28;43572;-77
2022/12/22 07:42:43;;;;;;;6.53;3.50;;;18.00;62.70;;;;;;5086629;28;43465;-76
2022/12/22 07:43:55;;;;;;;7.40;4.10;;;18.00;62.80;;;;;;5085178;28;43941;-75
2022/12/22 07:46:23;;;;;;;5.47;4.00;;;17.90;62.90;;;;;;5086367;28;43752;-77
2022/12/22 07:51:34;;;;;;;4.67;3.70;;;17.90;62.90;;;;;;5052155;28;43428;-77
2022/12/22 07:54:04;;;;;;;5.47;3.67;;;17.90;63.00;;;;;;5086803;28;44261;-75
2022/12/22 07:56:32;;;;;;;4.70;3.40;;;17.80;63.10;;;;;;5086665;28;44950;-75
2022/12/22 07:59:01;;;;;;;5.47;3.47;;;17.80;63.30;;;;;;5086323;28;43468;-74
2022/12/22 08:01:30;;;;;;;5.63;4.07;;;17.80;63.40;;;;;;5067923;28;43410;-75
2022/12/22 08:03:58;;;;;;;5.47;3.77;;;17.80;63.30;;;;;;5085451;28;43550;-75
2022/12/22 08:06:26;;;;;;;6.77;4.10;;;17.80;63.30;;;;;;5086413;28;44301;-74
2022/12/22 08:08:54;;;;;;;5.20;3.70;;;17.80;63.30;;;;;;5086173;28;43363;-75
2022/12/22 08:11:22;;;;;;;4.93;4.20;;;17.80;63.40;;;;;;5086984;28;43482;-75
2022/12/22 08:13:49;;;;;;;4.47;3.70;;;17.70;63.40;;;;;;5086742;28;43482;-74
2022/12/22 08:16:24;;;;;;;4.97;3.60;;;17.70;63.70;;;;;;5067681;28;45297;-71
2022/12/22 08:18:52;;;;;;;4.33;3.80;;;17.80;63.50;;;;;;5085635;28;43370;-75
2022/12/22 08:21:19;;;;;;;5.20;3.90;;;17.90;63.20;;;;;;5082564;28;43433;-77
2022/12/22 08:23:47;;;;;;;5.20;3.53;;;17.90;62.90;;;;;;5085580;28;44054;-75
2022/12/22 08:26:17;;;;;;;5.10;3.77;;;17.90;63.00;;;;;;5086176;28;43852;-76
2022/12/22 08:28:48;;;;;;;5.73;4.23;;;17.90;63.10;;;;;;5067348;28;44030;-75
2022/12/22 08:31:16;;;;;;;5.27;3.87;;;17.90;63.40;;;;;;5087134;27;44082;-75
2022/12/22 08:33:45;;;;;;;6.30;4.07;;;17.80;63.10;;;;;;5090485;28;43908;-75
2022/12/22 08:36:13;;;;;;;5.03;3.57;;;17.80;63.20;;;;;;5070727;28;46023;-74
2022/12/22 08:38:41;;;;;;;4.33;3.70;;;17.80;63.20;;;;;;5071018;28;44624;-76
2022/12/22 08:41:09;;;;;;;5.83;4.03;;;17.80;63.30;;;;;;5089461;28;44385;-76
2022/12/22 08:43:37;;;;;;;5.07;3.93;;;17.80;63.50;;;;;;5089787;28;43465;-74
2022/12/22 08:46:05;;;;;;;4.63;3.53;;;17.70;63.60;;;;;;5070780;28;44146;-76
2022/12/22 08:48:33;;;;;;;5.00;3.47;;;17.70;63.50;;;;;;5070900;28;44658;-75
2022/12/22 08:51:02;;;;;;;3.90;3.50;;;17.80;63.50;;;;;;5056789;28;43451;-75
2022/12/22 08:53:30;;;;;;;4.57;3.60;;;17.80;63.50;;;;;;5053749;28;43543;-76
2022/12/22 08:56:18;;;;;;;3.93;3.53;;;17.80;63.50;;;;;;5050371;28;43838;-76
2022/12/22 08:58:46;;;;;;;5.47;4.23;;;17.70;63.60;;;;;;5047977;28;43378;-75
2022/12/22 09:01:17;;;;;;;5.23;3.83;;;17.70;63.70;;;;;;5051723;28;43434;-77
2022/12/22 09:03:49;;;;;;;4.33;3.57;;;17.70;63.70;;;;;;5051316;28;43393;-76
2022/12/22 09:06:19;;;;;;;6.00;3.80;;;17.90;63.50;;;;;;5050594;28;45613;-77
2022/12/22 09:08:54;;;;;;;4.80;3.83;;;18.00;63.20;;;;;;5050185;28;43496;-76
2022/12/22 09:11:22;;;;;;;4.30;3.37;;;18.00;62.90;;;;;;5050598;28;43429;-75
2022/12/22 09:13:51;;;;;;;4.40;3.60;;;18.00;63.00;;;;;;5053090;28;43913;-75
2022/12/22 09:16:19;;;;;;;4.43;3.57;;;17.90;63.00;;;;;;5055916;28;43788;-77
2022/12/22 09:18:47;;;;;;;4.87;3.50;;;17.90;63.20;;;;;;5051691;28;43507;-77
2022/12/22 09:21:15;;;;;;;3.80;3.27;;;17.90;62.90;;;;;;5049266;28;43531;-75
2022/12/22 09:23:45;;;;;;;4.80;3.30;;;17.90;63.10;;;;;;5050872;28;43479;-76
2022/12/22 09:26:13;;;;;;;3.73;3.23;;;17.90;63.20;;;;;;5056127;28;44626;-75
2022/12/22 09:28:42;;;;;;;4.57;4.00;;;17.80;63.20;;;;;;5052802;28;43468;-77
2022/12/22 09:31:17;;;;;;;3.77;3.37;;;17.80;63.40;;;;;;5051372;28;43431;-77
2022/12/22 09:33:45;;;;;;;4.47;3.40;;;17.80;63.50;;;;;;5052682;28;43562;-75
2022/12/22 09:36:14;;;;;;;4.60;3.70;;;17.80;63.40;;;;;;5051828;28;43919;-75
2022/12/22 09:38:42;;;;;;;4.10;3.40;;;17.80;63.40;;;;;;5054247;28;43480;-75
2022/12/22 09:41:15;;;;;;;4.23;3.40;;;17.80;63.50;;;;;;5050419;28;43382;-75
2022/12/22 09:43:43;;;;;;;4.00;3.60;;;17.80;63.60;;;;;;5043482;28;43749;-74
2022/12/22 09:46:14;;;;;;;5.63;3.30;;;17.70;63.50;;;;;;5051598;28;43928;-75
2022/12/22 09:48:42;;;;;;;5.73;3.70;;;17.70;63.70;;;;;;5050437;28;43470;-74
2022/12/22 09:51:11;;;;;;;5.73;3.03;;;17.80;63.60;;;;;;5050223;28;43398;-75
2022/12/22 09:53:39;;;;;;;6.03;3.40;;;17.80;63.60;;;;;;5047058;28;43612;-75
2022/12/22 09:56:11;;;;;;;4.07;3.40;;;17.80;63.70;;;;;;5051909;28;46003;-76
2022/12/22 09:58:39;;;;;;;4.17;3.80;;;17.80;63.70;;;;;;5056909;28;43456;-76
2022/12/22 10:01:10;;;;;;;3.57;3.27;;;17.70;63.70;;;;;;5050318;28;43480;-76
2022/12/22 10:03:43;;;;;;;4.70;3.57;;;17.70;63.90;;;;;;5048649;28;43455;-76
2022/12/22 10:06:14;;;;;;;3.63;3.30;;;17.80;63.70;;;;;;5047281;28;43962;-77
2022/12/22 10:08:42;;;;;;;4.67;3.10;;;17.90;63.30;;;;;;5050701;28;44000;-75
2022/12/22 10:11:14;;;;;;;5.63;3.50;;;17.90;63.00;;;;;;5053550;28;43749;-77
2022/12/22 10:13:42;;;;;;;3.80;3.37;;;17.90;63.10;;;;;;5048278;28;43984;-74
2022/12/22 10:16:21;;;;;;;4.23;3.30;;;17.90;63.20;;;;;;5050160;28;45432;-75
2022/12/22 10:18:57;;;;;;;6.50;3.20;;;17.90;63.40;;;;;;5051516;28;43922;-75
2022/12/22 10:21:25;;;;;;;5.20;3.20;;;17.90;63.30;;;;;;5054867;28;43413;-75
2022/12/22 10:23:53;;;;;;;3.13;2.87;;;17.90;63.20;;;;;;5052971;28;43649;-77
2022/12/22 10:26:24;;;;;;;3.00;2.80;;;17.80;63.30;;;;;;5050952;28;45670;-77
2022/12/22 10:28:59;;;;;;;3.07;2.87;;;17.80;63.40;;;;;;5046869;28;44094;-76
2022/12/22 10:31:28;;;;;;;3.33;3.03;;;17.80;63.50;;;;;;5050312;28;43984;-77
2022/12/22 10:33:57;;;;;;;3.60;3.10;;;17.80;63.70;;;;;;5052844;28;43338;-76
2022/12/22 10:36:26;;;;;;;3.40;3.10;;;17.80;63.50;;;;;;5051999;28;45655;-76
2022/12/22 10:38:59;;;;;;;3.10;2.80;;;17.80;63.50;;;;;;5048880;28;43518;-75
2022/12/22 10:41:29;;;;;;;3.13;2.70;;;17.80;63.50;;;;;;5053124;28;43364;-75
2022/12/22 10:43:58;;;;;;;3.20;3.00;;;17.80;63.60;;;;;;5048020;28;43398;-76
2022/12/22 10:46:35;;;;;;;3.30;3.00;;;17.80;63.70;;;;;;5047661;28;46145;-76
2022/12/22 10:49:12;;;;;;;2.77;2.57;;;17.70;63.80;;;;;;5052680;28;43529;-75
2022/12/22 10:51:40;;;;;;;3.00;2.80;;;17.80;63.70;;;;;;5075074;28;43402;-77
2022/12/22 10:54:08;;;;;;;3.53;3.23;;;17.90;63.40;;;;;;5086701;27;43428;-75
2022/12/22 10:56:37;;;;;;;3.00;2.80;;;17.90;63.10;;;;;;5085142;28;43927;-74
2022/12/22 10:59:13;;;;;;;3.10;2.90;;;17.90;63.20;;;;;;5068324;28;44777;-76
2022/12/22 11:01:41;;;;;;;3.23;3.03;;;17.90;63.20;;;;;;5087237;28;43463;-74
2022/12/22 11:04:17;;;;;;;2.80;2.63;;;17.80;63.50;;;;;;5087125;28;43937;-75
2022/12/22 11:06:45;;;;;;;2.60;2.50;;;17.90;63.30;;;;;;5068080;28;46082;-74
2022/12/22 11:09:13;;;;;;;2.67;2.50;;;17.90;63.40;;;;;;5068353;28;44744;-72
2022/12/22 11:12:04;;;;;;;2.93;2.73;;;17.80;63.30;;;;;;5083543;28;43966;-75
2022/12/22 11:14:37;;;;;;;3.07;2.90;;;17.80;63.40;;;;;;5087899;28;44058;-77
2022/12/22 11:17:07;;;;;;;2.83;2.73;;;17.80;63.50;;;;;;5066620;28;45844;-76
2022/12/22 11:19:50;;;;;;;3.10;2.70;;;17.80;63.80;;;;;;5086701;28;43457;-75
2022/12/22 11:22:26;;;;;;;2.87;2.67;;;17.80;63.60;;;;;;5087220;28;43378;-75
2022/12/22 11:25:14;;;;;;;2.80;2.60;;;17.90;63.30;;;;;;5079989;28;43435;-75
2022/12/22 11:27:46;;;;;;;3.03;2.83;;;17.90;63.10;;;;;;5065317;28;45577;-74
2022/12/22 11:30:15;;;;;;;2.53;2.43;;;17.90;63.20;;;;;;5086700;28;43449;-75
2022/12/22 11:33:12;;;;;;;3.13;2.83;;;17.90;63.20;;;;;;5086767;28;43457;-74
2022/12/22 11:35:51;;;;;;;2.90;2.70;;;17.90;63.50;;;;;;5085659;28;43820;-76
2022/12/22 11:38:22;;;;;;;2.60;2.50;;;17.90;63.30;;;;;;5068047;28;46841;-77
2022/12/22 11:40:52;;;;;;;2.90;2.73;;;17.90;63.30;;;;;;5086821;28;43936;-78
2022/12/22 11:43:24;;;;;;;2.60;2.40;;;17.90;63.30;;;;;;5086960;28;43912;-77
2022/12/22 11:46:09;;;;;;;2.70;2.50;;;17.80;63.30;;;;;;5068777;28;43882;-72
2022/12/22 11:48:55;;;;;;;2.93;2.73;;;17.80;63.50;;;;;;5082064;28;43599;-74
2022/12/22 11:51:29;;;;;;;2.73;2.63;;;17.80;63.80;;;;;;5086494;28;43396;-73
2022/12/22 11:54:09;;;;;;;2.57;2.47;;;17.90;63.70;;;;;;5065570;28;43406;-75
2022/12/22 11:56:39;;;;;;;2.40;2.30;;;17.90;63.30;;;;;;5067914;28;43445;-77
2022/12/22 11:59:20;;;;;;;3.03;2.83;;;18.00;63.10;;;;;;5067832;28;45158;-77
2022/12/22 12:02:10;;;;;;;2.40;2.30;;;18.00;63.20;;;;;;5068160;28;44805;-76
2022/12/22 12:05:15;;;;;;;2.30;2.20;;;17.90;63.20;;;;;;5064988;27;43434;-75
2022/12/22 12:07:44;;;;;;;2.50;2.40;;;17.90;63.40;;;;;;5075462;28;43570;-77
2022/12/22 12:10:15;;;;;;;2.20;2.07;;;17.90;63.20;;;;;;5071057;28;45978;-75
2022/12/22 12:12:48;;;;;;;2.40;2.27;;;17.90;63.30;;;;;;5071459;28;45182;-77
2022/12/22 12:15:25;;;;;;;2.40;2.20;;;17.90;63.40;;;;;;5067777;28;43500;-76
2022/12/22 12:18:16;;;;;;;2.50;2.33;;;17.80;63.40;;;;;;5089043;28;43459;-75
2022/12/22 12:20:49;;;;;;;2.40;2.30;;;17.80;63.70;;;;;;5083635;28;43818;-77
2022/12/22 12:23:24;;;;;;;2.27;2.17;;;17.80;63.60;;;;;;5071494;28;44405;-76
2022/12/22 12:25:54;;;;;;;2.27;2.17;;;17.80;63.50;;;;;;5085601;28;43454;-77
2022/12/22 12:28:27;;;;;;;2.27;2.17;;;17.80;63.50;;;;;;5089913;28;43558;-74
2022/12/22 12:30:57;;;;;;;2.17;2.07;;;17.80;63.60;;;;;;5089480;28;43919;-77
2022/12/22 12:33:36;;;;;;;2.53;2.43;;;17.80;63.70;;;;;;5089808;28;43359;-76
2022/12/22 12:36:08;;;;;;;2.13;2.00;;;17.80;63.90;;;;;;5083936;28;43494;-75
2022/12/22 12:38:40;;;;;;;2.53;2.40;;;17.80;63.70;;;;;;5090043;28;43388;-77
2022/12/22 12:41:32;;;;;;;2.20;2.10;;;17.80;63.70;;;;;;5085266;28;44025;-76
2022/12/22 12:44:00;;;;;;;2.40;2.30;;;17.80;63.60;;;;;;5088264;28;44030;-76
2022/12/22 12:46:55;;;;;;;2.30;2.20;;;17.80;63.70;;;;;;5089493;28;43407;-76
2022/12/22 12:49:52;;;;;;;2.30;2.20;;;17.80;63.80;;;;;;5082641;28;43610;-75
2022/12/22 12:53:12;;;;;;;2.27;2.17;;;17.80;64.10;;;;;;5086333;28;43955;-76
2022/12/22 12:56:11;;;;;;;2.30;2.20;;;17.80;63.80;;;;;;5086804;28;43450;-77
2022/12/22 12:58:52;;;;;;;2.10;2.10;;;18.00;63.40;;;;;;5070527;28;43466;-76
2022/12/22 13:01:55;;;;;;;2.13;2.03;;;18.00;63.00;;;;;;5089908;28;43391;-74
2022/12/22 13:05:12;;;;;;;2.17;2.07;;;18.00;63.00;;;;;;5083789;28;43757;-77
2022/12/22 13:08:13;;;;;;;1.97;1.87;;;18.00;63.30;;;;;;5083523;28;44033;-77
2022/12/22 13:10:46;;;;;;;1.90;1.80;;;18.00;63.20;;;;;;5069740;28;43488;-76
2022/12/22 13:13:47;;;;;;;2.17;2.07;;;17.90;63.20;;;;;;5089074;28;43537;-72
2022/12/22 13:16:39;;;;;;;2.00;2.00;;;17.90;63.40;;;;;;5066978;27;45566;-76
2022/12/22 13:19:33;;;;;;;2.00;1.90;;;17.90;63.60;;;;;;5068809;28;43511;-77
2022/12/22 13:22:01;;;;;;;2.27;2.17;;;17.80;63.60;;;;;;5073674;28;43368;-76
2022/12/22 13:24:30;;;;;;;2.00;1.90;;;17.80;63.50;;;;;;5089115;28;43426;-76
2022/12/22 13:27:02;;;;;;;1.90;1.80;;;17.80;63.50;;;;;;5070018;28;45872;-76
2022/12/22 13:29:42;;;;;;;2.00;1.90;;;17.80;63.50;;;;;;5088614;28;43472;-76
2022/12/22 13:32:20;;;;;;;1.83;1.83;;;17.80;63.70;;;;;;5086301;28;44034;-76
2022/12/22 13:34:54;;;;;;;1.90;1.80;;;17.80;63.80;;;;;;5065379;28;43516;-75
2022/12/22 13:37:43;;;;;;;1.80;1.73;;;17.80;63.90;;;;;;5088336;28;43846;-75
2022/12/22 13:40:13;;;;;;;1.93;1.83;;;17.80;63.80;;;;;;5086630;28;43835;-76
2022/12/22 13:42:42;;;;;;;2.00;1.90;;;17.80;63.70;;;;;;5088708;28;43402;-74
2022/12/22 13:45:20;;;;;;;2.10;2.00;;;17.80;63.70;;;;;;5087003;28;43574;-78
2022/12/22 13:47:48;;;;;;;2.07;1.97;;;17.80;63.80;;;;;;5082025;28;43683;-74
2022/12/22 13:50:19;;;;;;;2.17;2.07;;;17.70;63.90;;;;;;5081864;28;43853;-75
2022/12/22 13:52:47;;;;;;;1.53;1.53;;;17.80;64.10;;;;;;5087898;28;43489;-75
2022/12/22 13:55:15;;;;;;;2.00;1.90;;;17.90;63.80;;;;;;5088833;28;43405;-76
2022/12/22 13:57:43;;;;;;;2.10;2.00;;;17.90;63.40;;;;;;5069013;28;45443;-77
2022/12/22 14:00:19;;;;;;;1.97;1.87;;;18.00;63.30;;;;;;5082002;28;43452;-75
2022/12/22 14:02:47;;;;;;;2.00;1.90;;;17.90;63.20;;;;;;5083592;28;43466;-76
2022/12/22 14:05:15;;;;;;;1.97;1.87;;;17.90;63.40;;;;;;5088270;28;43412;-76
2022/12/22 14:08:01;;;;;;;1.57;1.57;;;17.90;63.50;;;;;;5069449;28;46016;-75
2022/12/22 14:10:32;;;;;;;2.10;2.00;;;17.90;63.30;;;;;;5069495;28;44290;-75
2022/12/22 14:13:02;;;;;;;1.80;1.70;;;17.90;63.40;;;;;;5087888;28;43461;-76
2022/12/22 14:15:30;;;;;;;1.90;1.80;;;17.90;63.50;;;;;;5087882;28;43464;-77
2022/12/22 14:17:58;;;;;;;2.10;2.10;;;17.80;63.50;;;;;;5086129;28;43870;-75
2022/12/22 14:20:27;;;;;;;1.80;1.80;;;17.80;63.80;;;;;;5087672;28;43658;-76
2022/12/22 14:22:56;;;;;;;1.90;1.80;;;17.80;63.80;;;;;;5069635;28;43904;-75
2022/12/22 14:25:28;;;;;;;1.73;1.73;;;17.80;63.80;;;;;;5088058;28;43520;-76
2022/12/22 14:27:56;;;;;;;1.60;1.60;;;17.80;63.80;;;;;;5080746;28;43942;-74
2022/12/22 14:30:26;;;;;;;1.60;1.60;;;17.80;63.80;;;;;;5087197;28;43552;-77
2022/12/22 14:32:54;;;;;;;2.10;2.00;;;17.80;63.80;;;;;;5087935;28;43442;-76
2022/12/22 14:35:26;;;;;;;1.93;1.93;;;17.70;63.90;;;;;;5068540;28;43587;-75
2022/12/22 14:37:55;;;;;;;1.60;1.60;;;17.80;64.10;;;;;;5087372;28;43987;-74
2022/12/22 14:40:31;;;;;;;1.50;1.50;;;17.90;63.80;;;;;;5080707;28;43417;-76
2022/12/22 14:43:00;;;;;;;1.77;1.60;;;18.00;63.50;;;;;;5068849;28;43390;-77
2022/12/22 14:45:28;;;;;;;1.60;1.60;;;18.00;63.30;;;;;;5087713;28;43435;-76
2022/12/22 14:47:56;;;;;;;1.57;1.53;;;18.00;63.30;;;;;;5087234;28;43845;-75
2022/12/22 14:50:24;;;;;;;1.67;1.67;;;17.90;63.40;;;;;;5087077;28;43384;-76
2022/12/22 14:52:53;;;;;;;1.93;1.83;;;17.90;63.50;;;;;;5087322;28;43466;-73
2022/12/22 14:55:25;;;;;;;1.70;1.70;;;17.90;63.30;;;;;;5064602;28;43487;-76
2022/12/22 14:57:55;;;;;;;1.50;1.50;;;17.90;63.40;;;;;;5068653;28;45673;-73
2022/12/22 15:00:32;;;;;;;1.50;1.50;;;17.90;63.50;;;;;;5087368;28;44035;-75
2022/12/22 15:03:01;;;;;;;1.87;1.77;;;17.90;63.60;;;;;;5087379;28;43426;-77
2022/12/22 15:05:31;;;;;;;1.90;1.80;;;17.80;63.80;;;;;;5068769;28;43459;-76
2022/12/22 15:07:59;;;;;;;1.70;1.60;;;17.80;63.90;;;;;;5087046;28;43903;-75
2022/12/22 15:10:40;;;;;;;1.57;1.57;;;17.80;63.80;;;;;;5068204;28;44300;-76
2022/12/22 15:13:16;;;;;;;1.50;1.50;;;17.80;63.80;;;;;;5086830;28;43378;-76
2022/12/22 15:15:44;;;;;;;2.03;1.93;;;17.80;63.80;;;;;;5068591;28;43485;-77
2022/12/22 15:18:13;;;;;;;1.90;1.80;;;17.80;63.90;;;;;;5080148;28;43587;-74
2022/12/22 15:20:41;;;;;;;2.00;1.90;;;17.70;64.00;;;;;;5080612;28;43489;-77
2022/12/22 15:23:11;;;;;;;1.77;1.67;;;17.80;64.20;;;;;;5077928;28;44039;-75
2022/12/22 15:25:39;;;;;;;1.90;1.80;;;17.90;63.90;;;;;;5069216;28;43575;-75
2022/12/22 15:28:07;;;;;;;2.00;1.90;;;17.90;63.50;;;;;;5068227;28;45336;-77
2022/12/22 15:30:37;;;;;;;2.10;2.00;;;18.00;63.40;;;;;;5086803;28;43898;-77
2022/12/22 15:33:08;;;;;;;2.10;2.00;;;18.00;63.30;;;;;;5067684;28;43471;-77
2022/12/22 15:35:36;;;;;;;1.70;1.60;;;17.90;63.40;;;;;;5087396;28;43369;-75
2022/12/22 15:38:09;;;;;;;2.00;1.90;;;17.90;63.50;;;;;;5084284;28;43895;-76
2022/12/22 15:40:37;;;;;;;1.60;1.60;;;17.90;63.40;;;;;;5083904;28;43554;-77
2022/12/22 15:43:05;;;;;;;2.00;1.90;;;17.90;63.50;;;;;;5068490;28;43463;-75
2022/12/22 15:45:54;;;;;;;1.80;1.70;;;17.90;63.60;;;;;;5085068;28;43482;-76
2022/12/22 15:48:25;;;;;;;1.80;1.70;;;17.90;63.80;;;;;;5086599;28;43572;-74
2022/12/22 15:50:53;;;;;;;2.30;2.20;;;17.80;63.80;;;;;;5067387;28;44541;-74
2022/12/22 15:53:21;;;;;;;1.83;1.73;;;17.80;63.90;;;;;;5067220;28;43357;-76
2022/12/22 15:55:50;;;;;;;1.77;1.70;;;17.80;63.80;;;;;;5087140;28;43604;-76
2022/12/22 15:58:19;;;;;;;1.90;1.80;;;17.80;63.80;;;;;;5086817;28;43752;-76
2022/12/22 16:00:47;;;;;;;1.60;1.60;;;17.80;63.80;;;;;;5086410;28;43419;-75
2022/12/22 16:03:16;;;;;;;1.90;1.80;;;17.80;63.90;;;;;;5064918;28;43391;-77
2022/12/22 16:05:44;;;;;;;1.80;1.70;;;17.80;64.10;;;;;;5085595;28;43422;-75
2022/12/22 16:08:12;;;;;;;2.00;1.90;;;17.70;64.10;;;;;;5081129;28;43844;-76
2022/12/22 16:10:45;;;;;;;1.93;1.83;;;17.80;64.10;;;;;;5086100;28;43760;-74
2022/12/22 16:13:14;;;;;;;1.90;1.80;;;17.80;64.00;;;;;;5083939;28;43381;-77
2022/12/22 16:15:42;;;;;;;1.77;1.67;;;17.80;64.10;;;;;;5086407;28;43493;-76
2022/12/22 16:18:10;;;;;;;1.73;1.63;;;17.80;64.10;;;;;;5084732;28;43885;-77
2022/12/22 16:20:41;;;;;;;1.93;1.83;;;17.70;64.10;;;;;;5063938;28;43687;-76
2022/12/22 16:23:12;;;;;;;1.70;1.60;;;17.70;64.30;;;;;;5061720;28;43427;-75
2022/12/22 16:25:40;;;;;;;2.10;1.93;;;17.80;64.20;;;;;;5086630;28;43447;-75
2022/12/22 16:28:10;;;;;;;2.20;2.10;;;17.90;63.80;;;;;;5083086;28;43883;-76
2022/12/22 16:30:38;;;;;;;2.00;1.87;;;18.00;63.60;;;;;;5085563;28;43488;-77
2022/12/22 16:33:06;;;;;;;1.73;1.63;;;18.00;63.30;;;;;;5086088;28;43390;-77
2022/12/22 16:35:34;;;;;;;2.00;1.90;;;18.00;63.40;;;;;;5084698;28;43438;-75
2022/12/22 16:38:03;;;;;;;1.60;1.53;;;17.90;63.60;;;;;;5085671;28;43930;-76
2022/12/22 16:40:31;;;;;;;1.90;1.90;;;17.90;63.50;;;;;;5066886;28;43432;-76
2022/12/22 16:43:00;;;;;;;1.80;1.80;;;17.90;63.50;;;;;;5086174;28;43517;-76
2022/12/22 16:45:45;;;;;;;1.53;1.53;;;17.90;63.60;;;;;;5086071;28;43475;-76
2022/12/22 16:48:15;;;;;;;1.83;1.73;;;17.90;63.70;;;;;;5080335;28;44033;-77
2022/12/22 16:50:44;;;;;;;1.93;1.87;;;17.80;64.50;;;;;;5066710;28;44817;-77
2022/12/22 16:53:14;;;;;;;1.67;1.67;;;17.80;64.00;;;;;;5088148;28;43854;-76